Impacts TAF Board INFO
FOR SITUATIONAL AWARENESS. NOT TO BE USED FOR FLIGHT PLANNING PURPOSES.
IDs:

KDTW - Detroit Metro/Wayne, MI, US

Issued at 2102 UTC 24 Feb 2018
Updated at 2135 UTC 24 Feb 2018
Potential Impact None Slight Moderate High
Time<<25/22Z 25/23Z 26/00Z 26/01Z 26/02Z 26/03Z 26/04Z 26/05Z 26/06Z 26/07Z 26/08Z 26/09Z 26/10Z
Type PRVL PRVL
VIS >6 >6
CIG -- --
Cover SCT SCT
FltCat VFR VFR
WX -- --
WDir 240 240
WSpd 15 15
WGst 25 25

Raw TAF
KDTW 242102Z 2421/2524 08012KT P6SM BKN025 OVC080
  TEMPO 2421/2423 SCT025 OVC080
  FM250300 13015KT 2SM -RA OVC008
  FM251100 25018G34KT P6SM SCT018 BKN028
  FM251500 24015G25KT P6SM SCT025


METAR Board
Radar Display
Forecast Discussion

FOR SITUATIONAL AWARENESS. NOT TO BE USED FOR FLIGHT PLANNING PURPOSES.